createdAt,value
2018-07-04T00:00:08.023Z,78.69
2018-07-04T00:00:39.220Z,78.44
2018-07-04T00:01:10.400Z,78.71
2018-07-04T00:01:41.613Z,78.79
2018-07-04T00:02:12.840Z,78.69
2018-07-04T00:02:44.016Z,78.49
2018-07-04T00:03:15.248Z,78.91
2018-07-04T00:03:46.449Z,79.03
2018-07-04T00:04:17.679Z,78.90
2018-07-04T00:04:48.953Z,78.48
2018-07-04T00:05:20.210Z,78.73
2018-07-04T00:05:51.453Z,78.42
2018-07-04T00:06:22.729Z,79.21
2018-07-04T00:06:53.944Z,79.42
2018-07-04T00:07:25.142Z,79.42
2018-07-04T00:07:56.370Z,79.42
2018-07-04T00:08:27.601Z,79.75
2018-07-04T00:08:58.844Z,79.77
2018-07-04T00:09:30.086Z,79.83
2018-07-04T00:10:01.287Z,79.36
2018-07-04T00:10:32.534Z,79.97
2018-07-04T00:11:03.728Z,80.02
2018-07-04T00:11:34.912Z,79.87
2018-07-04T00:12:06.092Z,79.36
2018-07-04T00:12:37.378Z,79.66
2018-07-04T00:13:08.619Z,80.18
2018-07-04T00:13:39.816Z,79.46
2018-07-04T00:14:11.033Z,80.11
2018-07-04T00:14:42.265Z,79.61
2018-07-04T00:15:13.461Z,79.56
2018-07-04T00:15:44.640Z,79.67
2018-07-04T00:16:15.818Z,79.50
2018-07-04T00:16:46.990Z,79.32
2018-07-04T00:17:18.164Z,79.77
2018-07-04T00:17:49.337Z,79.32
2018-07-04T00:18:20.563Z,79.16
2018-07-04T00:18:51.792Z,79.49
2018-07-04T00:19:22.990Z,80.04
2018-07-04T00:19:54.164Z,79.93
2018-07-04T00:20:25.337Z,79.36
2018-07-04T00:20:56.551Z,79.69
2018-07-04T00:21:27.765Z,79.16
2018-07-04T00:21:58.957Z,79.14
2018-07-04T00:22:30.189Z,79.69
2018-07-04T00:23:01.394Z,79.12
2018-07-04T00:23:32.600Z,79.96
2018-07-04T00:24:03.777Z,79.41
2018-07-04T00:24:35.330Z,80.38
2018-07-04T00:25:06.516Z,80.47
2018-07-04T00:25:37.724Z,79.96
2018-07-04T00:26:08.958Z,80.54
2018-07-04T00:26:40.186Z,80.07
2018-07-04T00:27:11.479Z,80.08
2018-07-04T00:27:42.741Z,80.00
2018-07-04T00:28:13.984Z,79.98
2018-07-04T00:28:45.220Z,80.61
2018-07-04T00:29:16.474Z,80.67
2018-07-04T00:29:47.709Z,81.02
2018-07-04T00:30:18.942Z,80.45
2018-07-04T00:30:50.194Z,80.82
2018-07-04T00:31:21.445Z,80.43
2018-07-04T00:31:52.671Z,80.53
2018-07-04T00:32:23.975Z,81.19
2018-07-04T00:32:55.211Z,81.34
2018-07-04T00:33:26.457Z,81.28
2018-07-04T00:33:57.700Z,80.71
2018-07-04T00:34:28.942Z,80.90
2018-07-04T00:35:00.245Z,79.96
2018-07-04T00:35:31.481Z,80.09
2018-07-04T00:36:02.845Z,80.78
2018-07-04T00:36:34.103Z,80.60
2018-07-04T00:37:05.355Z,80.19
2018-07-04T00:37:36.609Z,80.43
2018-07-04T00:38:07.846Z,80.83
2018-07-04T00:38:39.090Z,80.40
2018-07-04T00:39:10.334Z,80.43
2018-07-04T00:39:41.663Z,80.67
2018-07-04T00:40:12.893Z,80.55
2018-07-04T00:40:44.133Z,81.14
2018-07-04T00:41:15.369Z,80.75
2018-07-04T00:41:46.601Z,80.53
2018-07-04T00:42:17.837Z,80.44
2018-07-04T00:42:49.065Z,80.64
2018-07-04T00:43:20.300Z,80.52
2018-07-04T00:43:51.526Z,81.21
2018-07-04T00:44:22.841Z,80.88
2018-07-04T00:44:54.079Z,81.65
2018-07-04T00:45:25.325Z,81.20
2018-07-04T00:45:56.559Z,81.26
2018-07-04T00:46:27.813Z,81.13
2018-07-04T00:46:59.049Z,81.55
2018-07-04T00:47:30.301Z,81.46
2018-07-04T00:48:01.581Z,80.90
2018-07-04T00:48:32.820Z,81.22
2018-07-04T00:49:04.062Z,80.88
2018-07-04T00:49:35.364Z,81.13
2018-07-04T00:50:06.609Z,81.94
2018-07-04T00:50:37.849Z,81.42
2018-07-04T00:51:09.089Z,81.37
2018-07-04T00:51:40.320Z,81.85
2018-07-04T00:52:11.559Z,81.25
2018-07-04T00:52:42.784Z,81.00
2018-07-04T00:53:14.021Z,80.81
2018-07-04T00:53:45.257Z,81.33
2018-07-04T00:54:16.494Z,80.48
2018-07-04T00:54:47.782Z,80.42
2018-07-04T00:55:19.024Z,80.48
2018-07-04T00:55:50.304Z,80.72
2018-07-04T00:56:21.556Z,81.13
2018-07-04T00:56:52.789Z,80.78
2018-07-04T00:57:24.023Z,80.75
2018-07-04T00:57:55.253Z,81.59
2018-07-04T00:58:26.499Z,81.91
2018-07-04T00:58:57.735Z,82.00
2018-07-04T00:59:28.977Z,82.05
2018-07-04T01:00:00.281Z,82.07
2018-07-04T01:00:31.516Z,81.98
2018-07-04T01:01:02.805Z,81.40
2018-07-04T01:01:34.046Z,82.09
2018-07-04T01:02:05.281Z,82.12
2018-07-04T01:02:36.526Z,81.32
2018-07-04T01:03:07.821Z,81.57
2018-07-04T01:03:39.077Z,82.40
2018-07-04T01:04:10.331Z,82.42
2018-07-04T01:04:41.567Z,81.99
2018-07-04T01:05:12.803Z,82.84
2018-07-04T01:05:44.075Z,82.57
2018-07-04T01:06:15.382Z,82.10
2018-07-04T01:06:46.617Z,82.36
2018-07-04T01:07:17.861Z,83.02
2018-07-04T01:07:49.085Z,82.35
2018-07-04T01:08:20.329Z,82.88
2018-07-04T01:08:51.562Z,82.13
2018-07-04T01:09:22.793Z,82.73
2018-07-04T01:09:54.017Z,82.63
2018-07-04T01:10:25.273Z,82.13
2018-07-04T01:10:56.530Z,82.52
2018-07-04T01:11:27.826Z,83.05
2018-07-04T01:11:59.056Z,83.22
2018-07-04T01:12:30.301Z,83.37
2018-07-04T01:13:01.551Z,83.58
2018-07-04T01:13:32.805Z,83.66
2018-07-04T01:14:04.033Z,83.64
2018-07-04T01:14:35.265Z,83.57
2018-07-04T01:15:06.496Z,83.37
2018-07-04T01:15:37.728Z,83.47
2018-07-04T01:16:08.974Z,83.13
2018-07-04T01:16:40.265Z,82.80
2018-07-04T01:17:11.504Z,82.93
2018-07-04T01:17:42.737Z,83.56
2018-07-04T01:18:13.973Z,83.79
2018-07-04T01:18:45.226Z,83.23
2018-07-04T01:19:16.465Z,83.79
2018-07-04T01:19:47.692Z,83.94
2018-07-04T01:20:18.925Z,83.35
2018-07-04T01:20:50.157Z,82.87
2018-07-04T01:21:21.393Z,83.53
2018-07-04T01:21:52.711Z,83.03
2018-07-04T01:22:23.968Z,83.17
2018-07-04T01:22:55.216Z,82.55
2018-07-04T01:23:26.485Z,83.49
2018-07-04T01:23:57.728Z,82.76
2018-07-04T01:24:28.975Z,83.67
2018-07-04T01:25:00.217Z,82.89
2018-07-04T01:25:31.452Z,83.58
2018-07-04T01:26:02.680Z,83.65
2018-07-04T01:26:33.912Z,83.39
2018-07-04T01:27:05.214Z,82.49
2018-07-04T01:27:36.461Z,82.37
2018-07-04T01:28:07.693Z,82.11
2018-07-04T01:28:38.925Z,82.69
2018-07-04T01:29:10.159Z,82.73
2018-07-04T01:29:41.389Z,82.49
2018-07-04T01:30:12.621Z,83.13
2018-07-04T01:30:43.896Z,83.15
2018-07-04T01:31:15.219Z,82.51
2018-07-04T01:31:46.521Z,83.25
2018-07-04T01:32:17.766Z,82.77
2018-07-04T01:32:48.989Z,83.03
2018-07-04T01:33:20.221Z,82.89
2018-07-04T01:33:51.491Z,82.49
2018-07-04T01:34:22.738Z,82.56
2018-07-04T01:34:53.981Z,82.64
2018-07-04T01:35:25.229Z,82.33
2018-07-04T01:35:56.523Z,82.67
2018-07-04T01:36:27.784Z,81.82
2018-07-04T01:36:59.052Z,81.43
2018-07-04T01:37:30.290Z,81.52
2018-07-04T01:38:01.541Z,81.43
2018-07-04T01:38:32.780Z,81.97
2018-07-04T01:39:04.015Z,82.04
2018-07-04T01:39:35.250Z,81.28
2018-07-04T01:40:06.496Z,81.78
2018-07-04T01:40:37.814Z,82.23
2018-07-04T01:41:09.064Z,82.55
2018-07-04T01:41:40.297Z,82.36
2018-07-04T01:42:11.541Z,82.20
2018-07-04T01:42:43.780Z,82.47
2018-07-04T01:43:15.022Z,82.78
2018-07-04T01:43:46.274Z,82.79
2018-07-04T01:44:17.515Z,82.42
2018-07-04T01:44:48.754Z,82.90
2018-07-04T01:45:19.981Z,83.01
2018-07-04T01:45:51.265Z,82.72
2018-07-04T01:46:22.519Z,83.38
2018-07-04T01:46:53.893Z,83.27
2018-07-04T01:47:25.141Z,83.65
2018-07-04T01:47:56.377Z,83.44
2018-07-04T01:48:27.668Z,83.78
2018-07-04T01:48:58.908Z,83.83
2018-07-04T01:49:30.831Z,83.18
2018-07-04T01:50:02.124Z,83.07
2018-07-04T01:50:33.377Z,83.55
2018-07-04T01:51:04.659Z,83.26
2018-07-04T01:51:35.897Z,82.74
2018-07-04T01:52:07.124Z,83.48
2018-07-04T01:52:38.357Z,83.45
2018-07-04T01:53:09.617Z,83.44
2018-07-04T01:53:40.900Z,82.77
2018-07-04T01:54:12.145Z,82.60
2018-07-04T01:54:43.389Z,83.29
2018-07-04T01:55:14.629Z,83.04
2018-07-04T01:55:45.905Z,82.67
2018-07-04T01:56:17.137Z,83.29
2018-07-04T01:56:48.397Z,82.96
2018-07-04T01:57:19.668Z,82.86
2018-07-04T01:57:50.916Z,83.55
2018-07-04T01:58:22.145Z,83.55
2018-07-04T01:58:53.377Z,83.20
2018-07-04T01:59:24.612Z,83.65
2018-07-04T01:59:55.865Z,83.42
2018-07-04T02:00:27.156Z,82.77
2018-07-04T02:00:58.387Z,81.44
2018-07-04T02:01:29.622Z,82.07
2018-07-04T02:02:00.853Z,82.57
2018-07-04T02:02:32.095Z,82.51
2018-07-04T02:03:03.343Z,82.16
2018-07-04T02:03:34.573Z,81.77
2018-07-04T02:04:05.808Z,82.23
2018-07-04T02:04:37.037Z,81.46
2018-07-04T02:05:08.269Z,81.45
2018-07-04T02:05:39.564Z,81.39
2018-07-04T02:06:10.793Z,81.01
2018-07-04T02:06:42.025Z,81.79
2018-07-04T02:07:13.258Z,80.67
2018-07-04T02:07:44.489Z,81.18
2018-07-04T02:08:15.719Z,80.98
2018-07-04T02:08:47.012Z,81.54
2018-07-04T02:09:18.253Z,81.89
2018-07-04T02:09:49.493Z,81.59
2018-07-04T02:10:20.730Z,81.72
2018-07-04T02:10:51.960Z,82.09
2018-07-04T02:11:23.192Z,82.32
2018-07-04T02:11:54.421Z,82.43
2018-07-04T02:12:25.716Z,82.47
2018-07-04T02:12:56.952Z,82.05
2018-07-04T02:13:28.192Z,82.55
2018-07-04T02:13:59.429Z,82.57
2018-07-04T02:14:30.659Z,81.26
2018-07-04T02:15:01.948Z,81.59
2018-07-04T02:15:33.176Z,81.76
2018-07-04T02:16:04.493Z,81.69
2018-07-04T02:16:35.748Z,82.14
2018-07-04T02:17:06.981Z,82.96
2018-07-04T02:17:38.219Z,81.54
2018-07-04T02:18:09.449Z,81.50
2018-07-04T02:18:40.673Z,82.39
2018-07-04T02:19:11.912Z,82.26
2018-07-04T02:19:43.137Z,81.56
2018-07-04T02:20:14.422Z,81.85
2018-07-04T02:20:45.754Z,81.28
2018-07-04T02:21:16.989Z,80.77
2018-07-04T02:21:48.218Z,80.81
2018-07-04T02:22:19.453Z,81.13
2018-07-04T02:22:50.694Z,81.13
2018-07-04T02:23:21.955Z,80.44
2018-07-04T02:23:53.201Z,81.52
2018-07-04T02:24:24.449Z,80.84
2018-07-04T02:24:55.737Z,80.57
2018-07-04T02:25:27.095Z,80.51
2018-07-04T02:25:58.360Z,80.06
2018-07-04T02:26:29.602Z,80.20
2018-07-04T02:27:00.842Z,80.46
2018-07-04T02:27:32.081Z,80.57
2018-07-04T02:28:03.357Z,80.64
2018-07-04T02:28:34.625Z,80.78
2018-07-04T02:29:05.866Z,80.76
2018-07-04T02:29:37.117Z,80.70
2018-07-04T02:30:08.301Z,80.80
2018-07-04T02:30:39.528Z,80.90
2018-07-04T02:31:10.762Z,81.25
2018-07-04T02:31:41.953Z,80.92
2018-07-04T02:32:13.203Z,80.92
2018-07-04T02:32:44.393Z,80.99
2018-07-04T02:33:15.619Z,81.73
2018-07-04T02:33:46.805Z,81.70
2018-07-04T02:34:17.995Z,81.72
2018-07-04T02:34:49.216Z,81.80
2018-07-04T02:35:20.445Z,81.51
2018-07-04T02:35:51.673Z,82.43
2018-07-04T02:36:22.913Z,82.53
2018-07-04T02:36:55.515Z,82.53
2018-07-04T02:37:26.747Z,82.14
2018-07-04T02:37:57.952Z,82.89
2018-07-04T02:38:29.171Z,82.32
2018-07-04T02:39:00.509Z,82.84
2018-07-04T02:39:31.736Z,82.95
2018-07-04T02:40:02.908Z,82.39
2018-07-04T02:40:34.101Z,82.17
2018-07-04T02:41:05.302Z,83.05
2018-07-04T02:41:36.533Z,82.55
2018-07-04T02:42:07.776Z,82.65
2018-07-04T02:42:39.011Z,82.82
2018-07-04T02:43:10.201Z,82.82
2018-07-04T02:43:41.443Z,82.96
2018-07-04T02:44:12.676Z,82.78
2018-07-04T02:44:43.849Z,82.71
2018-07-04T02:45:15.118Z,83.40
2018-07-04T02:45:46.346Z,82.88
2018-07-04T02:46:17.541Z,82.94
2018-07-04T02:46:48.717Z,82.90
2018-07-04T02:47:19.899Z,83.01
2018-07-04T02:47:51.093Z,83.05
2018-07-04T02:48:22.277Z,83.69
2018-07-04T02:48:53.446Z,83.24
2018-07-04T02:49:24.679Z,83.40
2018-07-04T02:49:55.906Z,83.39
2018-07-04T02:50:27.088Z,83.99
2018-07-04T02:50:58.268Z,84.04
2018-07-04T02:51:29.559Z,83.18
2018-07-04T02:52:00.749Z,84.07
2018-07-04T02:52:31.932Z,83.46
2018-07-04T02:53:03.102Z,84.26
2018-07-04T02:53:35.228Z,83.83
2018-07-04T02:54:06.496Z,84.45
2018-07-04T02:54:37.744Z,84.20
2018-07-04T02:55:08.935Z,84.24
2018-07-04T02:55:40.172Z,85.25
2018-07-04T02:56:11.352Z,84.58
2018-07-04T02:56:42.538Z,84.87
2018-07-04T02:57:13.708Z,84.52
2018-07-04T02:57:44.941Z,84.52
2018-07-04T02:58:16.138Z,84.65
2018-07-04T02:58:47.312Z,84.57
2018-07-04T02:59:18.545Z,85.12
2018-07-04T02:59:49.792Z,84.21
2018-07-04T03:00:20.969Z,84.33
2018-07-04T03:00:52.161Z,84.40
2018-07-04T03:01:23.332Z,84.76
2018-07-04T03:01:54.505Z,84.12
2018-07-04T03:02:25.728Z,84.42
2018-07-04T03:02:56.905Z,84.61
2018-07-04T03:03:28.072Z,84.54
2018-07-04T03:03:59.256Z,84.35
2018-07-04T03:04:30.512Z,84.76
2018-07-04T03:05:01.695Z,84.77
2018-07-04T03:05:32.923Z,83.88
2018-07-04T03:06:04.117Z,84.24
2018-07-04T03:06:35.337Z,83.88
2018-07-04T03:07:06.581Z,84.00
2018-07-04T03:07:37.760Z,84.06
2018-07-04T03:08:08.929Z,83.89
2018-07-04T03:08:40.098Z,84.25
2018-07-04T03:09:11.265Z,83.54
2018-07-04T03:09:42.448Z,82.85
2018-07-04T03:10:13.691Z,82.57
2018-07-04T03:10:44.877Z,82.95
2018-07-04T03:11:16.054Z,82.97
2018-07-04T03:11:47.234Z,82.27
2018-07-04T03:12:18.471Z,82.84
2018-07-04T03:12:49.704Z,82.09
2018-07-04T03:13:20.950Z,82.12
2018-07-04T03:13:52.178Z,81.69
2018-07-04T03:14:23.354Z,82.47
2018-07-04T03:14:54.520Z,82.23
2018-07-04T03:15:25.742Z,81.53
2018-07-04T03:15:56.920Z,81.29
2018-07-04T03:16:28.100Z,81.73
2018-07-04T03:16:59.284Z,81.80
2018-07-04T03:17:30.587Z,81.81
2018-07-04T03:18:01.775Z,81.38
2018-07-04T03:18:33.029Z,81.81
2018-07-04T03:19:04.214Z,80.70
2018-07-04T03:19:35.384Z,81.23
2018-07-04T03:20:07.153Z,80.62
2018-07-04T03:20:38.344Z,80.95
2018-07-04T03:21:09.532Z,80.43
2018-07-04T03:21:40.780Z,80.80
2018-07-04T03:22:12.590Z,81.05
2018-07-04T03:22:44.393Z,80.03
2018-07-04T03:23:15.652Z,79.91
2018-07-04T03:23:46.881Z,79.98
2018-07-04T03:24:18.877Z,79.65
2018-07-04T03:24:50.102Z,79.98
2018-07-04T03:25:21.288Z,79.46
2018-07-04T03:25:52.550Z,79.19
2018-07-04T03:26:23.736Z,78.73
2018-07-04T03:26:54.969Z,79.33
2018-07-04T03:27:26.209Z,78.60
2018-07-04T03:27:57.493Z,79.21
2018-07-04T03:28:28.879Z,79.36
2018-07-04T03:29:00.057Z,78.96
2018-07-04T03:29:31.296Z,78.80
2018-07-04T03:30:02.470Z,78.82
2018-07-04T03:30:33.696Z,78.58
2018-07-04T03:31:35.845Z,77.59
2018-07-04T03:32:07.029Z,77.50
2018-07-04T03:32:38.217Z,76.79
2018-07-04T03:33:09.447Z,77.12
2018-07-04T03:33:40.635Z,76.03
2018-07-04T03:34:11.808Z,75.79
2018-07-04T03:34:43.041Z,75.72
2018-07-04T03:35:14.296Z,75.56
2018-07-04T03:35:45.511Z,76.00
2018-07-04T03:36:16.687Z,75.87
2018-07-04T03:36:47.868Z,75.35
2018-07-04T03:37:19.097Z,74.85
2018-07-04T03:37:50.291Z,75.24
2018-07-04T03:38:21.636Z,74.54
2018-07-04T03:38:52.817Z,74.92
2018-07-04T03:39:23.997Z,73.89
2018-07-04T03:39:55.169Z,74.49
2018-07-04T03:40:26.351Z,74.19
2018-07-04T03:40:57.587Z,73.90
2018-07-04T03:41:29.304Z,72.83
2018-07-04T03:42:01.705Z,72.66
2018-07-04T03:42:32.927Z,73.37
2018-07-04T03:43:04.161Z,72.98
2018-07-04T03:43:35.453Z,73.11
2018-07-04T03:44:06.717Z,72.17
2018-07-04T03:44:37.913Z,72.55
2018-07-04T03:45:09.085Z,72.48
2018-07-04T03:45:40.309Z,71.78
2018-07-04T03:46:12.097Z,71.52
2018-07-04T03:46:43.290Z,70.56
2018-07-04T03:47:14.537Z,70.82
2018-07-04T03:47:45.721Z,69.99
2018-07-04T03:48:16.905Z,70.36
2018-07-04T03:48:48.185Z,70.17
2018-07-04T03:49:19.377Z,69.95
2018-07-04T03:49:50.556Z,69.27
2018-07-04T03:50:21.733Z,68.94
2018-07-04T03:50:52.923Z,69.96
2018-07-04T03:51:24.098Z,68.91
2018-07-04T03:51:55.283Z,69.63
2018-07-04T03:52:26.516Z,68.30
2018-07-04T03:52:57.700Z,68.34
2018-07-04T03:53:28.917Z,68.64
2018-07-04T03:54:00.144Z,68.15
2018-07-04T03:54:31.324Z,67.47
2018-07-04T03:55:02.558Z,66.98
2018-07-04T03:55:33.761Z,66.77
2018-07-04T03:56:05.002Z,66.65
2018-07-04T03:56:36.250Z,67.06
2018-07-04T03:57:07.433Z,67.07
2018-07-04T03:57:38.637Z,65.82
2018-07-04T03:58:09.888Z,65.79
2018-07-04T03:58:41.161Z,65.33
2018-07-04T03:59:12.401Z,65.90
2018-07-04T03:59:43.599Z,66.07
2018-07-04T04:00:14.787Z,65.51
2018-07-04T04:00:45.978Z,65.14
2018-07-04T04:01:17.221Z,65.05
2018-07-04T04:01:48.521Z,65.31
2018-07-04T04:02:19.705Z,65.98
2018-07-04T04:02:50.902Z,65.94
2018-07-04T04:03:22.774Z,66.52
2018-07-04T04:03:53.990Z,65.84
2018-07-04T04:04:25.216Z,66.21
2018-07-04T04:04:56.401Z,65.68
2018-07-04T04:05:27.592Z,65.53
2018-07-04T04:05:58.832Z,64.63
2018-07-04T04:06:30.086Z,65.26
2018-07-04T04:07:01.284Z,65.33
2018-07-04T04:07:32.472Z,64.17
2018-07-04T04:08:03.645Z,63.96
2018-07-04T04:08:34.832Z,63.90
2018-07-04T04:09:06.017Z,62.51
2018-07-04T04:09:37.307Z,63.14
2018-07-04T04:10:08.542Z,63.53
2018-07-04T04:10:39.740Z,63.05
2018-07-04T04:11:11.023Z,62.70
2018-07-04T04:11:42.277Z,64.11
2018-07-04T04:12:13.465Z,64.59
2018-07-04T04:12:44.696Z,63.98
2018-07-04T04:13:15.895Z,64.58
2018-07-04T04:13:47.076Z,64.62
2018-07-04T04:14:18.318Z,64.55
2018-07-04T04:14:49.570Z,63.44
2018-07-04T04:15:20.812Z,63.17
2018-07-04T04:15:52.003Z,62.87
2018-07-04T04:16:23.188Z,62.01
2018-07-04T04:16:54.433Z,62.24
2018-07-04T04:17:25.637Z,61.93
2018-07-04T04:17:56.834Z,60.46
2018-07-04T04:18:28.069Z,60.52
2018-07-04T04:18:59.314Z,60.83
2018-07-04T04:19:30.504Z,60.40
2018-07-04T04:20:01.750Z,60.47
2018-07-04T04:20:32.928Z,61.02
2018-07-04T04:21:04.100Z,61.29
2018-07-04T04:21:35.283Z,61.09
2018-07-04T04:22:06.525Z,61.45
2018-07-04T04:22:37.771Z,61.00
2018-07-04T04:23:08.955Z,60.53
2018-07-04T04:23:40.134Z,60.63
2018-07-04T04:24:11.319Z,60.16
2018-07-04T04:24:42.497Z,59.91
2018-07-04T04:25:13.733Z,60.00
2018-07-04T04:25:44.937Z,58.87
2018-07-04T04:26:16.112Z,59.23
2018-07-04T04:26:47.299Z,59.33
2018-07-04T04:27:18.510Z,59.93
2018-07-04T04:27:49.768Z,59.94
2018-07-04T04:28:21.020Z,59.96
2018-07-04T04:28:52.993Z,60.01
2018-07-04T04:29:24.308Z,59.82
2018-07-04T04:29:56.566Z,59.67
2018-07-04T04:30:27.798Z,59.70
2018-07-04T04:30:59.957Z,59.52
2018-07-04T04:31:31.205Z,59.27
2018-07-04T04:32:02.389Z,59.47
2018-07-04T04:32:33.618Z,59.25
2018-07-04T04:33:04.851Z,59.13
2018-07-04T04:33:36.030Z,58.61
2018-07-04T04:34:07.213Z,58.11
2018-07-04T04:34:38.441Z,57.50
2018-07-04T04:35:09.652Z,57.21
2018-07-04T04:35:40.896Z,56.58
2018-07-04T04:36:12.096Z,55.41
2018-07-04T04:36:43.278Z,55.17
2018-07-04T04:37:14.521Z,54.68
2018-07-04T04:37:45.711Z,54.60
2018-07-04T04:38:16.945Z,54.19
2018-07-04T04:38:48.126Z,54.32
2018-07-04T04:39:19.316Z,54.49
2018-07-04T04:39:50.500Z,54.48
2018-07-04T04:40:21.675Z,54.99
2018-07-04T04:40:52.913Z,55.65
2018-07-04T04:41:24.105Z,55.50
2018-07-04T04:41:55.285Z,55.52
2018-07-04T04:42:26.567Z,55.47
2018-07-04T04:42:57.802Z,55.36
2018-07-04T04:43:29.070Z,55.42
2018-07-04T04:44:00.248Z,54.87
2018-07-04T04:44:31.430Z,54.74
2018-07-04T04:45:02.628Z,54.98
2018-07-04T04:45:33.866Z,54.88
2018-07-04T04:46:05.075Z,54.96
2018-07-04T04:46:36.302Z,54.80
2018-07-04T04:47:07.491Z,55.06
2018-07-04T04:47:38.725Z,55.19
2018-07-04T04:48:09.974Z,54.94
2018-07-04T04:48:41.242Z,54.85
2018-07-04T04:49:12.762Z,54.84
2018-07-04T04:49:43.980Z,54.67
2018-07-04T04:50:15.204Z,54.59
2018-07-04T04:50:50.348Z,54.92
2018-07-04T04:51:22.833Z,54.98
2018-07-04T04:52:01.203Z,55.35
2018-07-04T04:52:35.065Z,56.37
2018-07-04T04:53:09.261Z,56.56
2018-07-04T04:53:40.462Z,57.17
2018-07-04T04:54:12.659Z,57.52
2018-07-04T04:54:44.104Z,57.45
2018-07-04T04:55:15.431Z,57.35
2018-07-04T04:55:46.752Z,57.62
2018-07-04T04:56:18.078Z,57.77
2018-07-04T04:56:49.272Z,57.38
2018-07-04T04:57:20.457Z,57.16
2018-07-04T04:57:52.322Z,56.55
2018-07-04T04:58:23.537Z,55.59
2018-07-04T04:58:54.725Z,55.46
2018-07-04T04:59:25.962Z,55.17
2018-07-04T04:59:58.149Z,54.43
2018-07-04T05:00:30.343Z,54.94
2018-07-04T05:01:01.738Z,54.68
2018-07-04T05:01:35.156Z,55.51
2018-07-04T05:02:06.361Z,55.29
2018-07-04T05:02:37.644Z,56.19
2018-07-04T05:03:09.956Z,56.56
2018-07-04T05:03:41.199Z,56.68
2018-07-04T05:04:12.372Z,56.65
2018-07-04T05:04:43.594Z,56.02
2018-07-04T05:05:14.829Z,55.90
2018-07-04T05:05:46.077Z,55.36
2018-07-04T05:06:17.278Z,54.99
2018-07-04T05:06:48.500Z,53.62
2018-07-04T05:07:19.732Z,53.96
2018-07-04T05:07:51.037Z,53.45
2018-07-04T05:08:22.185Z,52.88
2018-07-04T05:08:53.361Z,53.23
2018-07-04T05:09:24.528Z,52.31
2018-07-04T05:09:55.757Z,52.13
2018-07-04T05:10:27.003Z,52.30
2018-07-04T05:10:58.186Z,52.21
2018-07-04T05:11:29.418Z,52.41
2018-07-04T05:12:00.602Z,52.60
2018-07-04T05:12:31.783Z,52.04
2018-07-04T05:13:02.978Z,51.37
2018-07-04T05:13:34.151Z,51.04
2018-07-04T05:14:05.322Z,51.27
2018-07-04T05:14:36.521Z,51.13
2018-07-04T05:15:10.293Z,50.94
2018-07-04T05:15:41.529Z,50.28
2018-07-04T05:16:12.778Z,50.30
2018-07-04T05:16:44.017Z,49.45
2018-07-04T05:17:15.253Z,49.22
2018-07-04T05:17:46.488Z,48.66
2018-07-04T05:18:17.674Z,49.25
2018-07-04T05:18:48.914Z,49.05
2018-07-04T05:19:20.106Z,48.48
2018-07-04T05:19:51.353Z,48.67
2018-07-04T05:20:22.533Z,48.53
2018-07-04T05:20:53.729Z,48.04
2018-07-04T05:21:24.913Z,48.34
2018-07-04T05:21:56.106Z,48.55
2018-07-04T05:22:27.341Z,48.09
2018-07-04T05:22:58.578Z,47.45
2018-07-04T05:23:29.824Z,46.90
2018-07-04T05:24:01.099Z,45.21
2018-07-04T05:24:32.335Z,45.80
2018-07-04T05:25:03.664Z,45.49
2018-07-04T05:25:34.912Z,44.28
2018-07-04T05:26:06.109Z,44.49
2018-07-04T05:26:37.299Z,44.63
2018-07-04T05:27:08.492Z,43.78
2018-07-04T05:27:39.744Z,43.67
2018-07-04T05:28:10.982Z,42.92
2018-07-04T05:28:42.192Z,43.22
2018-07-04T05:29:13.373Z,43.17
2018-07-04T05:29:44.611Z,43.21
2018-07-04T05:30:15.865Z,43.63
2018-07-04T05:30:47.046Z,43.79
2018-07-04T05:31:18.224Z,44.29
2018-07-04T05:31:50.176Z,43.76
2018-07-04T05:32:21.376Z,44.55
2018-07-04T05:32:52.552Z,45.38
2018-07-04T05:33:23.743Z,44.85
2018-07-04T05:33:54.931Z,44.52
2018-07-04T05:34:26.116Z,45.72
2018-07-04T05:34:57.352Z,45.82
2018-07-04T05:35:28.649Z,44.97
2018-07-04T05:35:59.892Z,44.38
2018-07-04T05:36:31.091Z,44.76
2018-07-04T05:37:02.269Z,44.21
2018-07-04T05:37:33.537Z,44.47
2018-07-04T05:38:04.744Z,44.52
2018-07-04T05:38:35.968Z,44.59
2018-07-04T05:39:07.148Z,44.86
2018-07-04T05:39:38.344Z,45.52
2018-07-04T05:40:09.569Z,45.38
2018-07-04T05:40:40.877Z,45.42
2018-07-04T05:41:12.113Z,46.66
2018-07-04T05:41:43.297Z,47.62
2018-07-04T05:42:14.481Z,46.68
2018-07-04T05:42:45.757Z,48.05
2018-07-04T05:43:16.951Z,47.36
2018-07-04T05:43:48.166Z,47.78
2018-07-04T05:44:19.455Z,47.30
2018-07-04T05:44:50.648Z,48.98
2018-07-04T05:45:21.825Z,49.21
2018-07-04T05:45:53.007Z,48.69
2018-07-04T05:46:24.320Z,48.85
2018-07-04T05:46:55.553Z,48.38
2018-07-04T05:47:26.740Z,48.65
2018-07-04T05:47:57.973Z,47.47
2018-07-04T05:48:29.218Z,47.84
2018-07-04T05:49:00.420Z,47.19
2018-07-04T05:49:31.656Z,48.08
2018-07-04T05:50:03.040Z,47.24
2018-07-04T05:50:34.084Z,46.86
2018-07-04T05:51:05.284Z,47.88
2018-07-04T05:51:36.597Z,47.94
2018-07-04T05:52:07.802Z,47.87
2018-07-04T05:52:39.948Z,48.06
2018-07-04T05:53:11.140Z,48.38
2018-07-04T05:53:42.325Z,48.15
2018-07-04T05:54:13.522Z,47.63
2018-07-04T05:54:44.705Z,47.64
2018-07-04T05:55:15.953Z,48.71
2018-07-04T05:55:47.164Z,48.43
2018-07-04T05:56:18.471Z,48.38
2018-07-04T05:56:49.714Z,47.84
2018-07-04T05:57:20.915Z,48.46
2018-07-04T05:57:52.109Z,48.09
2018-07-04T05:58:23.301Z,48.76
2018-07-04T05:58:54.544Z,48.65
2018-07-04T05:59:25.733Z,49.89
2018-07-04T05:59:56.965Z,48.48
2018-07-04T06:00:28.157Z,48.78
2018-07-04T06:00:59.393Z,48.51
2018-07-04T06:01:30.637Z,49.75
2018-07-04T06:02:04.935Z,49.85
2018-07-04T06:02:36.205Z,49.08
2018-07-04T06:03:07.433Z,49.89
2018-07-04T06:03:38.673Z,49.32
2018-07-04T06:04:09.907Z,50.14
2018-07-04T06:04:41.116Z,50.13
2018-07-04T06:05:12.365Z,49.45
2018-07-04T06:05:43.571Z,48.54
2018-07-04T06:06:14.752Z,48.76
2018-07-04T06:06:45.937Z,49.04
2018-07-04T06:07:17.126Z,48.40
2018-07-04T06:07:48.421Z,48.22
2018-07-04T06:08:19.611Z,48.50
2018-07-04T06:08:50.854Z,49.37
2018-07-04T06:09:22.094Z,48.63
2018-07-04T06:09:53.320Z,48.78
2018-07-04T06:10:24.508Z,47.75
2018-07-04T06:10:55.742Z,48.34
2018-07-04T06:11:26.929Z,47.50
2018-07-04T06:11:58.117Z,48.11
2018-07-04T06:12:29.304Z,48.11
2018-07-04T06:13:00.556Z,48.24
2018-07-04T06:13:31.726Z,48.31
2018-07-04T06:14:02.917Z,48.59
2018-07-04T06:14:34.146Z,48.32
2018-07-04T06:15:05.331Z,46.88
2018-07-04T06:15:36.575Z,46.92
2018-07-04T06:16:07.858Z,48.29
2018-07-04T06:16:39.040Z,47.94
2018-07-04T06:17:10.217Z,47.73
2018-07-04T06:17:41.532Z,48.05
2018-07-04T06:18:12.665Z,47.66
2018-07-04T06:18:43.844Z,48.93
2018-07-04T06:19:15.034Z,48.89
2018-07-04T06:19:46.287Z,47.89
2018-07-04T06:20:17.534Z,48.15
2018-07-04T06:20:49.655Z,48.62
2018-07-04T06:21:20.901Z,48.16
2018-07-04T06:21:52.093Z,47.70
2018-07-04T06:22:23.281Z,47.88
2018-07-04T06:22:54.525Z,46.82
2018-07-04T06:23:25.797Z,47.63
2018-07-04T06:23:56.972Z,46.89
2018-07-04T06:24:28.205Z,47.23
2018-07-04T06:24:59.386Z,46.02
2018-07-04T06:25:30.578Z,45.71
2018-07-04T06:26:01.754Z,45.64
2018-07-04T06:26:32.978Z,46.00
2018-07-04T06:27:04.305Z,45.34
2018-07-04T06:27:35.502Z,45.69
2018-07-04T06:28:06.672Z,45.77
2018-07-04T06:28:38.876Z,45.65
2018-07-04T06:29:10.124Z,45.60
2018-07-04T06:29:41.361Z,45.94
2018-07-04T06:30:12.544Z,45.26
2018-07-04T06:30:43.730Z,45.76
2018-07-04T06:31:14.984Z,45.91
2018-07-04T06:31:46.217Z,44.48
2018-07-04T06:32:17.450Z,44.51
2018-07-04T06:32:48.629Z,44.51
2018-07-04T06:33:19.803Z,45.06
2018-07-04T06:33:50.984Z,44.55
2018-07-04T06:34:22.160Z,44.97
2018-07-04T06:34:53.401Z,45.23
2018-07-04T06:35:24.586Z,44.94
2018-07-04T06:35:55.765Z,44.30
2018-07-04T06:36:26.989Z,44.36
2018-07-04T06:36:58.213Z,44.17
2018-07-04T06:37:29.409Z,44.39
2018-07-04T06:38:00.586Z,44.60
2018-07-04T06:38:31.765Z,44.66
2018-07-04T06:39:03.059Z,45.18
2018-07-04T06:39:34.269Z,45.37
2018-07-04T06:40:05.501Z,44.51
2018-07-04T06:40:36.696Z,45.04
2018-07-04T06:41:07.879Z,45.19
2018-07-04T06:41:39.088Z,44.90
2018-07-04T06:42:10.267Z,45.01
2018-07-04T06:42:41.489Z,44.04
2018-07-04T06:43:12.722Z,44.69